Time;durP1;ratioP1;P1;durP2;ratioP2;P2;SDS_P1;SDS_P2;PMS_P1;PMS_P2;Temp;Humidity;BMP_temperature;BMP_pressure;BME280_temperature;BME280_humidity;BME280_pressure;Samples;Min_cycle;Max_cycle;Signal;HPM_P1;HPM_P2
2024/01/28 00:01:52;;;;;;;306.73;70.53;;;0.20;80.20;1.50;98476.00;;;;5036154;28;20448;-85
2024/01/28 00:04:41;;;;;;;302.87;67.07;;;0.10;80.40;1.70;98477.00;;;;5054943;28;20474;-84
2024/01/28 00:07:30;;;;;;;305.30;71.33;;;0.00;81.00;1.90;98479.00;;;;4999571;28;20434;-84
2024/01/28 00:10:19;;;;;;;305.77;70.40;;;-0.10;81.30;2.10;98484.00;;;;5021834;28;20442;-84
2024/01/28 00:13:09;;;;;;;321.00;77.50;;;-0.10;81.10;1.70;98475.00;;;;5003559;28;20437;-85
2024/01/28 00:15:58;;;;;;;317.23;72.47;;;-0.10;81.20;1.30;98477.00;;;;5004935;28;20429;-85
2024/01/28 00:18:47;;;;;;;309.97;68.93;;;-0.20;82.00;1.20;98467.00;;;;5036253;28;20471;-84
2024/01/28 00:21:36;;;;;;;308.80;67.77;;;-0.30;82.70;0.70;98462.00;;;;5001409;28;20478;-83
2024/01/28 00:24:25;;;;;;;302.70;64.37;;;-0.40;82.80;1.20;98473.00;;;;5003534;28;20429;-83
2024/01/28 00:27:13;;;;;;;308.07;67.87;;;-0.50;82.60;0.70;98459.00;;;;5013527;28;20441;-83
2024/01/28 00:30:05;;;;;;;308.67;67.80;;;-0.40;82.40;1.90;98459.00;;;;5046992;28;20491;-84
2024/01/28 00:32:54;;;;;;;307.30;67.27;;;-0.30;82.50;2.00;98466.00;;;;5036208;28;20421;-84
2024/01/28 00:35:43;;;;;;;307.77;67.73;;;-0.30;82.60;1.00;98448.00;;;;5006858;28;20453;-83
2024/01/28 00:38:33;;;;;;;302.07;64.60;;;-0.30;82.80;1.00;98466.00;;;;5036575;28;20808;-84
2024/01/28 00:41:22;;;;;;;306.70;67.77;;;-0.40;83.30;1.80;98472.00;;;;5005632;28;20996;-84
2024/01/28 00:44:11;;;;;;;306.77;67.73;;;-0.40;84.30;1.60;98470.00;;;;5048955;28;20440;-84
2024/01/28 00:47:02;;;;;;;319.00;74.90;;;-0.40;83.30;1.80;98475.00;;;;5021822;28;20441;-84
2024/01/28 00:49:51;;;;;;;311.00;68.97;;;-0.40;96.50;1.80;98481.00;;;;5005717;28;20457;-85
2024/01/28 00:52:40;;;;;;;305.53;66.33;;;-0.40;96.80;1.50;98477.00;;;;5028961;28;20428;-84
2024/01/28 00:55:29;;;;;;;310.03;69.53;;;-0.40;84.30;1.60;98483.00;;;;5041126;28;20449;-84
2024/01/28 00:58:17;;;;;;;305.50;66.73;;;-0.40;85.20;1.60;98490.00;;;;5033504;28;20433;-83
2024/01/28 01:01:06;;;;;;;318.80;75.37;;;-0.50;85.70;1.40;98496.00;;;;5003300;28;20452;-84
2024/01/28 01:03:57;;;;;;;309.10;69.23;;;-0.50;86.70;1.50;98499.00;;;;5003868;28;20448;-84
2024/01/28 01:06:46;;;;;;;304.33;65.60;;;-0.60;87.00;1.30;98519.00;;;;5033369;28;20448;-85
2024/01/28 01:09:35;;;;;;;304.43;65.57;;;-0.70;86.10;1.50;98501.00;;;;5043831;28;20517;-84
2024/01/28 01:12:24;;;;;;;304.67;66.43;;;-0.60;87.10;1.10;98515.00;;;;5010075;28;20450;-86
2024/01/28 01:15:13;;;;;;;308.03;68.30;;;-0.70;87.60;1.10;98505.00;;;;5013742;28;20509;-86
2024/01/28 01:18:02;;;;;;;309.17;70.50;;;-0.80;87.40;1.30;98519.00;;;;5047307;28;20434;-86
2024/01/28 01:20:53;;;;;;;303.23;66.13;;;-0.90;88.40;1.30;98517.00;;;;5012550;28;20457;-85
2024/01/28 01:23:42;;;;;;;302.10;64.97;;;;;1.20;98521.00;;;;5009850;28;20429;-86
2024/01/28 01:26:32;;;;;;;302.80;66.23;;;-0.90;88.70;0.50;98510.00;;;;5035587;28;20815;-86
2024/01/28 01:29:21;;;;;;;299.77;64.13;;;-1.00;89.60;0.20;98508.00;;;;5048869;28;20465;-86
2024/01/28 01:32:10;;;;;;;311.40;69.60;;;-1.20;89.80;0.10;98514.00;;;;5012267;28;20452;-86
2024/01/28 01:34:59;;;;;;;309.77;70.50;;;-1.30;90.10;-0.40;98512.00;;;;5011065;28;20421;-86
2024/01/28 01:37:50;;;;;;;302.13;65.57;;;-1.50;90.20;-0.30;98501.00;;;;5073079;28;20436;-85
2024/01/28 01:40:38;;;;;;;298.33;63.60;;;-1.50;90.70;-0.30;98493.00;;;;5073706;28;20445;-85
2024/01/28 01:43:28;;;;;;;300.20;65.10;;;-1.50;90.60;0.20;98491.00;;;;5072711;28;20450;-85
2024/01/28 01:46:17;;;;;;;297.00;63.70;;;-1.50;90.50;0.30;98491.00;;;;5049914;28;20987;-86
2024/01/28 01:49:06;;;;;;;312.90;72.30;;;-1.30;90.40;0.40;98516.00;;;;5045493;28;20948;-86
2024/01/28 01:51:55;;;;;;;306.03;67.97;;;-1.20;90.30;0.40;98505.00;;;;5013233;28;20460;-86
2024/01/28 01:54:47;;;;;;;300.50;65.83;;;-1.20;90.30;1.10;98508.00;;;;5011641;28;20429;-85
2024/01/28 01:57:37;;;;;;;337.35;80.72;;;-0.90;99.90;0.70;98507.00;;;;5026569;28;20397;-85
2024/01/28 02:00:26;;;;;;;309.03;67.97;;;-1.10;90.20;1.20;98519.00;;;;5030354;28;20615;-86
2024/01/28 02:03:15;;;;;;;311.40;68.70;;;-1.00;89.80;1.40;98521.00;;;;5056174;28;20456;-86
2024/01/28 02:06:05;;;;;;;309.23;68.03;;;-0.90;89.80;1.40;98519.00;;;;5019388;28;21082;-86
2024/01/28 02:08:55;;;;;;;308.93;67.83;;;-0.80;90.10;1.20;98512.00;;;;5003556;28;20441;-86
2024/01/28 02:11:46;;;;;;;298.87;61.90;;;-0.80;90.00;0.70;98512.00;;;;5062188;28;20440;-86
2024/01/28 02:14:35;;;;;;;301.73;64.77;;;-0.90;90.10;0.60;98512.00;;;;5051661;28;20430;-86
2024/01/28 02:17:24;;;;;;;303.07;65.37;;;-1.10;90.30;0.10;98504.00;;;;5047176;28;20448;-85
2024/01/28 02:20:13;;;;;;;302.00;67.50;;;-1.20;90.50;-0.30;98506.00;;;;5043913;28;20461;-86
2024/01/28 02:23:05;;;;;;;301.90;65.87;;;-1.30;90.80;0.50;98518.00;;;;5029810;28;20433;-85
2024/01/28 02:25:56;;;;;;;302.30;66.35;;;-1.30;91.00;0.60;98517.00;;;;5008336;28;20956;-85
2024/01/28 02:28:45;;;;;;;298.08;64.03;;;-1.30;90.90;0.40;98516.00;;;;5058497;28;20206;-85
2024/01/28 02:31:33;;;;;;;297.83;64.77;;;-1.20;91.00;0.50;98518.00;;;;5024832;28;20226;-85
2024/01/28 02:34:22;;;;;;;294.73;62.07;;;-1.30;91.00;0.90;98514.00;;;;5045062;28;20810;-84
2024/01/28 02:37:12;;;;;;;307.17;69.73;;;-1.20;91.00;1.00;98521.00;;;;5041825;28;20810;-84
2024/01/28 02:40:01;;;;;;;311.27;71.97;;;-1.20;99.90;1.00;98527.00;;;;5005668;28;20433;-85
2024/01/28 02:42:51;;;;;;;303.27;67.07;;;-1.20;91.10;0.90;98520.00;;;;5037172;28;20428;-84
2024/01/28 02:45:40;;;;;;;294.70;61.93;;;-1.20;91.10;0.90;98522.00;;;;5031346;28;20444;-86
2024/01/28 02:48:29;;;;;;;297.63;63.57;;;-1.20;91.00;1.00;98516.00;;;;5072683;28;20421;-84
2024/01/28 02:51:18;;;;;;;297.90;63.60;;;-1.20;91.10;1.00;98522.00;;;;5042880;28;20852;-84
2024/01/28 02:54:07;;;;;;;308.83;69.00;;;-1.20;91.00;1.00;98530.00;;;;5003382;28;20437;-85
2024/01/28 02:56:55;;;;;;;300.37;65.00;;;-1.20;91.10;0.60;98526.00;;;;5001248;28;20438;-85
2024/01/28 02:59:46;;;;;;;296.87;66.97;;;-1.40;99.90;0.40;98524.00;;;;5000240;28;20428;-85
2024/01/28 03:02:35;;;;;;;302.83;68.50;;;-1.40;91.50;0.30;98523.00;;;;5039107;28;20433;-85
2024/01/28 03:05:24;;;;;;;290.10;67.53;;;-1.40;91.80;0.30;98528.00;;;;5002101;28;20221;-85
2024/01/28 03:08:13;;;;;;;300.30;66.97;;;-1.60;91.90;0.30;98536.00;;;;5007593;28;20468;-85
2024/01/28 03:11:02;;;;;;;295.90;63.95;;;-1.60;92.00;0.10;98529.00;;;;5038156;28;20706;-84
2024/01/28 03:13:50;;;;;;;290.38;61.78;;;-1.70;92.10;-0.20;98524.00;;;;5004329;28;20202;-85
2024/01/28 03:16:41;;;;;;;296.23;65.57;;;-1.70;92.20;-1.60;98522.00;;;;5001946;28;20698;-87
2024/01/28 03:19:30;;;;;;;294.50;63.92;;;;;-1.10;98524.00;;;;5029323;28;20203;-86
2024/01/28 03:22:19;;;;;;;294.88;65.25;;;-2.10;93.00;-1.80;98520.00;;;;5019514;28;20204;-87
2024/01/28 03:25:09;;;;;;;305.48;72.68;;;-2.20;93.80;-0.90;98529.00;;;;5049916;28;20695;-86
2024/01/28 03:27:58;;;;;;;294.43;68.00;;;-2.20;94.00;-0.60;98537.00;;;;5009042;28;20206;-86
2024/01/28 03:30:47;;;;;;;296.48;63.78;;;-2.20;94.00;-0.20;98542.00;;;;5006580;28;21010;-86
2024/01/28 03:33:37;;;;;;;295.50;64.10;;;-2.10;93.90;-0.10;98544.00;;;;5010574;28;20202;-87
2024/01/28 03:36:26;;;;;;;299.03;66.37;;;-2.10;93.90;-0.30;98556.00;;;;5009782;28;20436;-86
2024/01/28 03:39:15;;;;;;;297.90;65.20;;;-2.10;94.00;-0.10;98554.00;;;;5010388;28;20816;-86
2024/01/28 03:42:05;;;;;;;302.30;68.05;;;-2.00;93.70;-0.10;98551.00;;;;4997174;28;20828;-87
2024/01/28 03:44:54;;;;;;;297.33;65.45;;;-1.90;93.60;0.40;98557.00;;;;5004459;28;20287;-86
2024/01/28 03:47:43;;;;;;;293.88;63.50;;;-1.80;93.40;-0.10;98556.00;;;;5001772;28;20198;-86
2024/01/28 03:50:34;;;;;;;289.10;60.60;;;-1.70;93.30;-1.20;98547.00;;;;5002487;28;20229;-87
2024/01/28 03:53:23;;;;;;;295.88;63.45;;;-1.90;93.70;-1.00;98547.00;;;;5003980;28;20213;-86
2024/01/28 03:56:12;;;;;;;300.83;65.90;;;-2.00;94.00;-0.80;98541.00;;;;5000960;28;20210;-86
2024/01/28 03:59:00;;;;;;;301.80;67.65;;;-2.10;94.20;0.00;98550.00;;;;4997563;28;20210;-87
2024/01/28 04:01:49;;;;;;;293.25;62.85;;;-2.00;94.00;-0.10;98544.00;;;;4998214;28;20227;-85
2024/01/28 04:04:38;;;;;;;291.45;60.90;;;-1.90;93.80;-0.40;98537.00;;;;5010270;28;20218;-86
2024/01/28 04:07:29;;;;;;;294.33;63.15;;;-1.90;93.90;-1.20;98544.00;;;;5008956;27;20589;-85
2024/01/28 04:10:18;;;;;;;297.25;64.72;;;-2.00;94.30;-0.70;98544.00;;;;4995732;28;20256;-85
2024/01/28 04:13:06;;;;;;;300.60;66.45;;;-2.10;94.50;-0.10;98561.00;;;;5006870;28;20194;-86
2024/01/28 04:15:55;;;;;;;293.02;62.25;;;-2.10;94.60;0.10;98557.00;;;;5002256;28;20209;-85
2024/01/28 04:18:44;;;;;;;298.20;65.57;;;-2.10;94.70;0.50;98567.00;;;;5010412;28;20214;-86
2024/01/28 04:21:34;;;;;;;291.92;61.55;;;-1.90;94.20;0.00;98561.00;;;;5000314;28;20219;-86
2024/01/28 04:24:24;;;;;;;291.17;61.80;;;-1.90;94.10;0.20;98552.00;;;;4999041;28;20213;-86
2024/01/28 04:27:13;;;;;;;305.88;70.05;;;-1.90;94.10;0.00;98565.00;;;;4999775;28;20206;-86
2024/01/28 04:30:02;;;;;;;291.93;62.07;;;-2.00;99.90;0.00;98564.00;;;;4998821;28;20251;-85
2024/01/28 04:32:51;;;;;;;293.17;62.42;;;-1.90;94.40;-0.50;98552.00;;;;5004796;28;20441;-87
2024/01/28 04:35:40;;;;;;;296.38;63.75;;;-1.90;94.50;-1.00;98555.00;;;;5001019;28;20207;-87
2024/01/28 04:38:28;;;;;;;293.80;63.17;;;-2.00;94.80;-1.10;98547.00;;;;5003888;28;20211;-87
2024/01/28 04:41:19;;;;;;;293.45;62.67;;;-2.20;95.10;-1.60;98547.00;;;;5006467;28;20215;-87
2024/01/28 04:44:08;;;;;;;301.15;67.65;;;-2.30;95.40;-0.80;98541.00;;;;4999221;28;20683;-86
2024/01/28 04:46:57;;;;;;;295.20;64.50;;;-2.30;95.80;-0.40;98550.00;;;;5005713;28;20202;-87
2024/01/28 04:49:46;;;;;;;294.98;64.38;;;-2.30;99.90;-0.70;98543.00;;;;5006159;28;20627;-87
2024/01/28 04:52:35;;;;;;;294.80;63.85;;;-2.30;95.70;-0.90;98548.00;;;;5010074;28;20229;-85
2024/01/28 04:55:24;;;;;;;294.95;63.33;;;-2.30;95.70;-0.40;98564.00;;;;4998612;28;20293;-85
2024/01/28 04:58:14;;;;;;;300.02;66.28;;;-2.20;95.60;-0.50;98565.00;;;;5005905;28;20206;-87
2024/01/28 05:01:03;;;;;;;303.33;68.30;;;-2.10;95.50;-0.20;98563.00;;;;5009133;28;20225;-86
2024/01/28 05:03:52;;;;;;;295.08;63.55;;;-2.10;95.40;-0.50;98568.00;;;;5005134;28;20210;-86
2024/01/28 05:06:41;;;;;;;288.50;60.53;;;-2.10;95.30;-0.30;98559.00;;;;4999524;28;20263;-86
2024/01/28 05:09:31;;;;;;;293.27;63.40;;;-2.00;95.30;-0.50;98566.00;;;;4998210;28;20255;-85
2024/01/28 05:12:19;;;;;;;295.67;63.70;;;-2.00;95.40;-0.60;98557.00;;;;5004520;28;20238;-87
2024/01/28 05:15:14;;;;;;;294.20;63.72;;;-2.10;95.60;-0.70;98552.00;;;;5004042;28;20202;-85
2024/01/28 05:18:03;;;;;;;298.23;66.40;;;-2.20;95.70;-1.30;98551.00;;;;5004601;28;20236;-85
2024/01/28 05:20:51;;;;;;;287.25;60.58;;;-2.20;95.90;-0.70;98552.00;;;;4999873;28;20222;-87
2024/01/28 05:23:40;;;;;;;292.73;63.00;;;-2.20;95.90;-0.60;98568.00;;;;5004201;28;20214;-87
2024/01/28 05:26:31;;;;;;;287.58;61.35;;;-2.20;95.90;0.10;98578.00;;;;5004835;28;20687;-86
2024/01/28 05:29:20;;;;;;;289.92;61.50;;;-2.20;96.10;0.10;98574.00;;;;5008100;28;20214;-87
2024/01/28 05:32:11;;;;;;;300.55;67.35;;;-2.10;96.00;-0.10;98575.00;;;;5006366;28;20226;-87
2024/01/28 05:35:02;;;;;;;301.50;67.50;;;-2.10;96.10;-0.20;98562.00;;;;5010173;28;20213;-86
2024/01/28 05:37:51;;;;;;;292.08;63.35;;;-2.10;96.00;-0.40;98574.00;;;;5002170;28;20245;-86
2024/01/28 05:40:41;;;;;;;288.83;62.13;;;-2.20;96.00;-0.10;98576.00;;;;5004935;28;20234;-86
2024/01/28 05:43:29;;;;;;;289.17;61.28;;;-2.20;96.20;-0.50;98567.00;;;;5002317;28;20214;-85
2024/01/28 05:46:18;;;;;;;292.13;63.25;;;-2.20;96.10;-1.30;98570.00;;;;4999194;28;20202;-85
2024/01/28 05:49:11;;;;;;;299.33;66.47;;;-2.40;96.40;-1.00;98573.00;;;;5009006;28;20198;-86
2024/01/28 05:52:00;;;;;;;292.02;62.08;;;-2.50;96.70;-0.40;98584.00;;;;5008209;28;20241;-86
2024/01/28 05:54:49;;;;;;;291.60;62.58;;;-2.40;96.90;-0.20;98585.00;;;;5007051;28;20716;-85
2024/01/28 05:57:38;;;;;;;288.02;61.67;;;-2.40;97.10;-0.20;98575.00;;;;5006854;28;20207;-87
2024/01/28 06:00:27;;;;;;;290.35;62.10;;;-2.40;97.10;-0.40;98582.00;;;;5012301;28;20224;-85
2024/01/28 06:03:16;;;;;;;288.80;61.63;;;-2.40;97.00;-0.50;98591.00;;;;5014826;28;20213;-87
2024/01/28 06:06:07;;;;;;;298.48;67.00;;;-2.40;96.80;-0.30;98591.00;;;;5011934;28;20216;-85
2024/01/28 06:08:56;;;;;;;293.90;64.10;;;-2.40;97.00;-0.20;98595.00;;;;5006536;28;20206;-86
2024/01/28 06:11:44;;;;;;;290.55;62.28;;;-2.40;97.10;-0.20;98602.00;;;;5009202;28;20621;-85
2024/01/28 06:14:33;;;;;;;290.23;61.10;;;-2.40;97.20;-0.70;98596.00;;;;5007159;28;20707;-86
2024/01/28 06:17:22;;;;;;;294.55;64.32;;;-2.40;97.20;-0.70;98601.00;;;;5012345;28;20217;-86
2024/01/28 06:20:11;;;;;;;296.48;65.57;;;-2.50;97.20;-0.90;98591.00;;;;5015290;28;20234;-85
2024/01/28 06:23:02;;;;;;;295.75;64.30;;;-2.50;97.10;-2.00;98590.00;;;;5006273;28;20217;-87
2024/01/28 06:25:51;;;;;;;288.60;61.58;;;-2.70;97.50;-1.80;98598.00;;;;5015129;28;20232;-87
2024/01/28 06:28:40;;;;;;;294.13;63.53;;;-2.70;97.80;-0.80;98616.00;;;;5006888;28;20203;-87
2024/01/28 06:31:29;;;;;;;290.55;62.35;;;-2.70;98.00;-0.80;98608.00;;;;5007299;28;20223;-87
2024/01/28 06:34:18;;;;;;;290.60;63.60;;;-2.70;97.90;-0.90;98601.00;;;;5007960;28;20197;-85
2024/01/28 06:37:07;;;;;;;299.80;69.63;;;-2.70;97.70;-0.90;98624.00;;;;5005400;28;20198;-85
2024/01/28 06:39:57;;;;;;;293.88;67.28;;;-2.60;99.90;-0.60;98623.00;;;;5005642;28;20206;-85
2024/01/28 06:42:46;;;;;;;98.37;48.87;;;-2.50;97.70;-0.30;98632.00;;;;5008502;28;20203;-85
2024/01/28 06:45:35;;;;;;;276.65;62.33;;;-2.40;97.60;-0.60;98630.00;;;;5009552;28;20449;-86
2024/01/28 06:48:24;;;;;;;90.73;47.10;;;-2.40;97.50;-0.50;98633.00;;;;5008761;28;20206;-86
2024/01/28 06:51:13;;;;;;;260.45;67.03;;;-2.40;97.80;-0.10;98638.00;;;;5011229;28;20864;-86
2024/01/28 06:54:02;;;;;;;107.03;51.07;;;-2.30;97.30;0.10;98647.00;;;;5011250;28;20216;-84
2024/01/28 06:56:52;;;;;;;111.67;50.60;;;-2.20;97.10;-0.20;98636.00;;;;5006807;28;20437;-84
2024/01/28 06:59:44;;;;;;;122.03;53.17;;;-2.10;97.00;-0.10;98638.00;;;;5008401;28;20437;-86
2024/01/28 07:02:32;;;;;;;129.97;56.30;;;-2.10;97.10;-0.10;98624.00;;;;5007682;28;20436;-87
2024/01/28 07:05:21;;;;;;;171.40;63.33;;;-2.10;97.20;0.10;98640.00;;;;5003234;28;20446;-87
2024/01/28 07:08:10;;;;;;;195.40;68.70;;;-2.00;97.10;0.10;98638.00;;;;5005925;28;20445;-86
2024/01/28 07:11:01;;;;;;;162.23;60.00;;;-2.00;97.10;0.10;98644.00;;;;5008626;28;20453;-86
2024/01/28 07:13:51;;;;;;;131.57;55.40;;;-2.00;97.00;0.10;98648.00;;;;5009030;28;20476;-86
2024/01/28 07:16:40;;;;;;;174.23;60.20;;;;;-0.60;98638.00;;;;5009429;28;20425;-87
2024/01/28 07:19:30;;;;;;;257.60;65.63;;;-2.00;96.60;-0.30;98649.00;;;;5010439;28;20520;-87
2024/01/28 07:22:19;;;;;;;292.50;65.65;;;-2.00;96.80;0.00;98654.00;;;;5008370;28;20460;-86
2024/01/28 07:25:09;;;;;;;299.52;70.53;;;-1.90;96.60;-0.20;98652.00;;;;4994140;28;20199;-85
2024/01/28 07:27:58;;;;;;;286.58;63.13;;;-1.90;96.50;-0.10;98657.00;;;;5000036;28;20210;-85
2024/01/28 07:30:48;;;;;;;288.27;63.40;;;-1.80;96.70;-1.10;98640.00;;;;5008593;28;20605;-85
2024/01/28 07:33:37;;;;;;;286.98;65.93;;;-2.00;97.00;-1.20;98636.00;;;;5007240;28;20594;-85
2024/01/28 07:36:26;;;;;;;291.52;68.53;;;-2.10;97.50;-1.10;98640.00;;;;5005459;28;20205;-85
2024/01/28 07:39:15;;;;;;;307.17;78.15;;;-2.30;97.80;-0.50;98643.00;;;;5004969;28;20280;-85
2024/01/28 07:42:05;;;;;;;294.65;66.80;;;-2.20;97.90;-0.20;98637.00;;;;5014820;28;20218;-85
2024/01/28 07:44:54;;;;;;;295.08;71.32;;;-2.10;97.70;-0.30;98629.00;;;;5005841;27;20203;-84
2024/01/28 07:47:44;;;;;;;283.58;61.55;;;-2.00;97.40;0.20;98637.00;;;;5001170;28;20710;-84
2024/01/28 07:50:33;;;;;;;286.40;63.47;;;-1.80;97.00;0.00;98626.00;;;;4998541;28;20653;-84
2024/01/28 07:53:22;;;;;;;292.10;71.35;;;-1.60;96.90;-0.20;98622.00;;;;5009806;28;20231;-84
2024/01/28 07:56:11;;;;;;;297.90;73.43;;;-1.50;96.80;0.00;98630.00;;;;5005122;28;20207;-84
2024/01/28 07:59:00;;;;;;;292.17;70.25;;;-1.50;96.90;-0.10;98630.00;;;;4999258;28;20211;-84
2024/01/28 08:01:49;;;;;;;293.30;67.40;;;-1.60;97.00;0.00;98637.00;;;;4999211;28;20242;-84
2024/01/28 08:04:39;;;;;;;291.90;67.47;;;-1.60;96.80;-0.10;98633.00;;;;5009601;28;20581;-85
2024/01/28 08:07:28;;;;;;;295.80;75.20;;;-1.60;97.00;-0.20;98647.00;;;;5007848;28;20594;-85
2024/01/28 08:10:17;;;;;;;293.08;68.05;;;-1.70;97.20;-0.40;98630.00;;;;5006801;28;21927;-85
2024/01/28 08:13:06;;;;;;;301.57;71.57;;;-0.60;97.40;0.60;98637.00;;;;5001972;28;20222;-85
2024/01/28 08:16:01;;;;;;;294.43;69.23;;;-1.50;96.80;1.10;98641.00;;;;4998100;28;20460;-85
2024/01/28 08:18:50;;;;;;;294.43;67.73;;;-1.30;96.70;1.40;98629.00;;;;4995838;28;20451;-85
2024/01/28 08:21:40;;;;;;;297.70;70.17;;;-1.10;96.60;0.30;98637.00;;;;5000672;28;20461;-85
2024/01/28 08:24:29;;;;;;;158.90;55.70;;;-1.10;96.40;-0.10;98633.00;;;;5019690;28;20449;-87
2024/01/28 08:27:18;;;;;;;295.23;65.80;;;-1.20;96.40;0.00;98631.00;;;;5012580;28;20449;-86
2024/01/28 08:30:08;;;;;;;302.60;69.85;;;-1.20;96.30;0.50;98632.00;;;;5009815;28;20465;-86
2024/01/28 08:32:57;;;;;;;295.07;65.17;;;-1.10;96.40;0.40;98635.00;;;;5013004;28;20222;-86
2024/01/28 08:35:46;;;;;;;289.40;62.47;;;-1.10;96.60;0.30;98628.00;;;;5008266;28;20461;-86
2024/01/28 08:38:37;;;;;;;291.33;63.87;;;-1.10;96.70;0.80;98635.00;;;;5008864;28;20975;-85
2024/01/28 08:41:26;;;;;;;297.70;69.33;;;-1.00;96.10;1.60;98642.00;;;;5014982;28;20626;-85
2024/01/28 08:44:15;;;;;;;295.27;75.87;;;-0.80;96.20;1.80;98648.00;;;;5004365;28;20440;-87
2024/01/28 08:47:04;;;;;;;309.37;74.00;;;-0.60;95.90;2.30;98656.00;;;;5015942;28;20452;-86
2024/01/28 08:49:53;;;;;;;307.90;72.73;;;-0.20;99.90;2.50;98656.00;;;;5014688;28;20450;-86
2024/01/28 08:52:43;;;;;;;308.47;73.63;;;-0.10;95.10;2.70;98658.00;;;;5007593;28;20462;-86
2024/01/28 08:55:33;;;;;;;309.37;71.67;;;0.20;95.30;3.00;98669.00;;;;5026896;28;20430;-85
2024/01/28 08:58:22;;;;;;;301.87;66.90;;;0.40;94.90;3.30;98673.00;;;;5007347;28;20444;-86
2024/01/28 09:01:13;;;;;;;317.27;74.97;;;0.60;94.80;3.20;98672.00;;;;5011808;28;20453;-86
2024/01/28 09:04:02;;;;;;;308.00;72.20;;;0.70;94.90;3.10;98671.00;;;;5004189;28;20477;-86
2024/01/28 09:06:51;;;;;;;309.53;71.17;;;0.80;94.50;3.40;98672.00;;;;5011569;28;20454;-86
2024/01/28 09:09:41;;;;;;;306.03;66.97;;;1.00;94.10;3.70;98664.00;;;;5009728;28;20437;-85
2024/01/28 09:12:34;;;;;;;315.40;72.70;;;1.10;93.90;3.80;98669.00;;;;5012163;28;20960;-87
2024/01/28 09:15:23;;;;;;;318.77;75.23;;;1.20;93.60;3.30;98673.00;;;;5023112;28;20447;-86
2024/01/28 09:18:12;;;;;;;317.43;74.57;;;1.40;93.30;3.30;98662.00;;;;5002206;28;20801;-86
2024/01/28 09:21:01;;;;;;;315.83;73.07;;;1.40;93.00;3.80;98672.00;;;;5002759;28;20454;-86
2024/01/28 09:23:50;;;;;;;308.83;69.20;;;1.50;92.90;3.40;98665.00;;;;5012390;28;20456;-86
2024/01/28 09:26:39;;;;;;;312.53;70.97;;;1.50;92.70;3.40;98680.00;;;;5005780;28;20445;-86
2024/01/28 09:29:30;;;;;;;310.73;70.77;;;1.50;92.90;3.50;98670.00;;;;5008945;28;20436;-87
2024/01/28 09:32:19;;;;;;;309.03;70.40;;;1.60;93.30;3.50;98675.00;;;;5016631;28;20422;-86
2024/01/28 09:35:09;;;;;;;309.67;74.50;;;1.70;93.00;3.40;98675.00;;;;5005924;28;20469;-86
2024/01/28 09:37:57;;;;;;;308.50;68.80;;;1.70;92.00;4.00;98687.00;;;;5001769;28;20442;-87
2024/01/28 09:40:47;;;;;;;292.13;74.77;;;1.90;91.80;4.60;98684.00;;;;5003593;28;20834;-85
2024/01/28 09:43:39;;;;;;;312.97;71.07;;;2.10;91.40;4.80;98685.00;;;;5005137;28;20435;-83
2024/01/28 09:46:30;;;;;;;318.87;74.70;;;2.30;91.30;4.50;98673.00;;;;5006800;28;21083;-84
2024/01/28 09:49:21;;;;;;;324.60;76.87;;;2.50;90.60;5.10;98685.00;;;;5008733;28;20502;-84
2024/01/28 09:52:11;;;;;;;327.63;82.20;;;2.70;90.50;5.40;98669.00;;;;5005626;28;20818;-85
2024/01/28 09:55:00;;;;;;;320.17;78.33;;;2.80;90.40;5.50;98673.00;;;;5001400;28;20476;-86
2024/01/28 09:57:50;;;;;;;320.40;76.23;;;3.00;89.00;5.90;98673.00;;;;5006969;28;20425;-86
2024/01/28 10:00:38;;;;;;;319.40;79.50;;;3.20;88.40;6.20;98678.00;;;;5008996;28;20463;-85
2024/01/28 10:03:29;;;;;;;327.63;81.30;;;3.40;87.70;6.70;98679.00;;;;5007907;28;20444;-87
2024/01/28 10:06:18;;;;;;;347.10;89.20;;;3.70;87.60;7.40;98679.00;;;;5005352;28;20495;-87
2024/01/28 10:09:06;;;;;;;340.13;86.60;;;4.00;88.30;7.30;98680.00;;;;5004686;28;20432;-87
2024/01/28 10:11:58;;;;;;;321.13;74.03;;;4.30;88.80;7.80;98680.00;;;;4999499;28;20450;-87
2024/01/28 10:14:53;;;;;;;325.33;78.37;;;4.60;88.20;8.40;98682.00;;;;5001973;28;20481;-86
2024/01/28 10:17:46;;;;;;;325.57;82.97;;;4.90;88.10;8.80;98690.00;;;;5004730;28;20931;-85
2024/01/28 10:20:36;;;;;;;328.40;83.17;;;5.20;86.70;9.00;98685.00;;;;5003411;28;21053;-87
2024/01/28 10:23:25;;;;;;;337.73;88.80;;;5.60;84.70;9.40;98686.00;;;;5015104;28;20417;-86
2024/01/28 10:26:16;;;;;;;348.77;93.40;;;5.80;84.20;9.60;98686.00;;;;5018099;28;21115;-85
2024/01/28 10:29:09;;;;;;;345.20;90.03;;;6.20;82.40;9.90;98679.00;;;;5008421;28;20430;-87
2024/01/28 10:32:01;;;;;;;334.37;84.53;;;6.40;80.80;10.30;98679.00;;;;5004995;28;20479;-86
2024/01/28 10:34:50;;;;;;;334.57;86.37;;;6.70;81.10;10.50;98675.00;;;;5007384;28;20473;-85
2024/01/28 10:37:42;;;;;;;337.50;88.63;;;7.00;80.50;11.00;98671.00;;;;5013026;28;20429;-86
2024/01/28 10:40:34;;;;;;;336.57;88.83;;;7.30;80.70;11.50;98665.00;;;;5017886;28;20232;-84
2024/01/28 10:43:28;;;;;;;340.50;92.97;;;8.00;79.20;12.50;98667.00;;;;5017977;28;20210;-84
2024/01/28 10:46:21;;;;;;;355.30;106.63;;;9.40;75.30;13.60;98674.00;;;;5023161;28;20218;-87
2024/01/28 10:49:32;;;;;;;368.37;117.27;;;10.90;73.30;14.50;98671.00;;;;5007648;28;20217;-88
2024/01/28 10:52:22;;;;;;;355.03;114.67;;;12.50;69.10;14.80;98671.00;;;;4999682;28;20206;-86
2024/01/28 10:55:12;;;;;;;369.33;124.87;;;13.60;62.80;13.90;98661.00;;;;5002054;28;20233;-86
2024/01/28 10:58:01;;;;;;;353.57;120.83;;;14.30;56.90;15.10;98670.00;;;;5011062;28;20210;-86
2024/01/28 11:00:51;;;;;;;354.10;122.93;;;14.60;56.30;15.10;98658.00;;;;5008906;28;20221;-86
2024/01/28 11:03:40;;;;;;;364.40;138.10;;;14.90;53.90;15.20;98653.00;;;;5014620;28;20234;-86
2024/01/28 11:06:31;;;;;;;358.70;146.93;;;15.10;53.70;15.10;98650.00;;;;5013250;28;20205;-86
2024/01/28 11:09:21;;;;;;;369.30;158.43;;;15.20;52.00;16.10;98651.00;;;;5012963;28;20206;-86
2024/01/28 11:12:11;;;;;;;379.30;160.57;;;15.40;52.70;16.30;98659.00;;;;5015538;28;20672;-86
2024/01/28 11:15:01;;;;;;;371.73;161.57;;;15.70;52.30;16.00;98650.00;;;;5003678;28;20229;-86
2024/01/28 11:17:52;;;;;;;373.93;169.30;;;15.90;50.30;15.60;98646.00;;;;5010486;28;20620;-87
2024/01/28 11:20:41;;;;;;;369.67;163.63;;;15.70;49.30;15.80;98647.00;;;;5015140;28;20230;-87
2024/01/28 11:23:30;;;;;;;367.07;161.60;;;15.60;49.80;16.30;98658.00;;;;5012643;28;20212;-86
2024/01/28 11:26:20;;;;;;;372.53;163.60;;;15.60;50.30;16.20;98650.00;;;;5006974;28;20217;-87
2024/01/28 11:29:10;;;;;;;369.03;160.83;;;15.50;49.70;15.80;98647.00;;;;5007988;28;20190;-87
2024/01/28 11:32:04;;;;;;;362.60;157.87;;;15.50;49.10;16.20;98645.00;;;;5017561;28;20253;-87
2024/01/28 11:34:53;;;;;;;368.80;167.77;;;15.30;50.00;15.60;98632.00;;;;5009702;28;20213;-87
2024/01/28 11:37:52;;;;;;;357.93;158.30;;;15.20;49.20;17.00;98628.00;;;;5008006;28;20203;-87
2024/01/28 11:40:41;;;;;;;365.23;169.20;;;15.20;50.60;14.50;98618.00;;;;5004594;28;20245;-88
2024/01/28 11:43:30;;;;;;;369.50;170.93;;;15.10;48.80;16.00;98630.00;;;;5030116;28;20208;-89
2024/01/28 11:46:22;;;;;;;376.27;178.80;;;15.10;48.80;16.40;98625.00;;;;5031816;28;20214;-88
2024/01/28 11:49:12;;;;;;;384.10;187.03;;;15.20;49.40;16.40;98620.00;;;;5004444;28;20210;-87
2024/01/28 11:52:02;;;;;;;371.70;182.60;;;15.50;48.70;16.60;98618.00;;;;5007179;28;20267;-88
2024/01/28 11:54:51;;;;;;;373.60;185.17;;;15.60;48.80;17.50;98612.00;;;;5003302;28;20194;-88
2024/01/28 11:57:41;;;;;;;379.40;204.23;;;15.90;49.00;16.90;98615.00;;;;5005906;28;20198;-88
2024/01/28 12:00:31;;;;;;;378.03;199.90;;;15.90;47.20;17.00;98598.00;;;;5000380;28;20229;-88
2024/01/28 12:03:22;;;;;;;376.03;195.50;;;15.80;48.10;17.20;98600.00;;;;4997376;28;20775;-88
2024/01/28 12:06:19;;;;;;;392.57;213.37;;;15.60;48.70;16.90;98590.00;;;;4995166;28;20586;-87
2024/01/28 12:09:20;;;;;;;389.57;210.97;;;15.60;48.70;17.40;98599.00;;;;4998209;28;20199;-88
2024/01/28 12:12:09;;;;;;;386.87;213.67;;;15.60;47.80;17.50;98586.00;;;;4995210;28;20229;-88
2024/01/28 12:14:59;;;;;;;373.37;202.80;;;15.50;48.40;18.00;98579.00;;;;4996187;28;20233;-88